Time;durP1;ratioP1;P1;durP2;ratioP2;P2;SDS_P1;SDS_P2;PMS_P1;PMS_P2;Temp;Humidity;BMP_temperature;BMP_pressure;BME280_temperature;BME280_humidity;BME280_pressure;Samples;Min_cycle;Max_cycle;Signal;HPM_P1;HPM_P2
2022/09/14 00:01:43;;;;;;;12.52;11.32;;;16.80;99.90;;;-141.84;80.27;19401.28;5093137;28;20228;-65
2022/09/14 00:04:16;;;;;;;11.40;10.20;;;16.80;99.90;;;-141.84;80.07;19411.44;5093008;28;20706;-64
2022/09/14 00:06:46;;;;;;;11.40;10.20;;;16.70;99.90;;;-141.84;80.69;19401.28;5093248;28;20258;-65
2022/09/14 00:09:17;;;;;;;11.77;10.63;;;16.70;99.90;;;-141.84;81.29;19352.53;5093531;28;20203;-65
2022/09/14 00:11:46;;;;;;;10.82;9.82;;;16.70;99.90;;;-141.84;81.73;19368.78;5093386;28;20600;-63
2022/09/14 00:14:14;;;;;;;11.98;10.77;;;16.70;99.90;;;-141.84;82.05;19350.50;5093417;28;20231;-67
2022/09/14 00:16:44;;;;;;;12.20;11.10;;;16.60;99.90;;;-141.84;81.29;19366.75;5075210;28;20232;-64
2022/09/14 00:19:21;;;;;;;11.52;10.32;;;16.60;99.90;;;-141.84;80.65;19366.75;5072174;28;20228;-66
2022/09/14 00:21:53;;;;;;;10.82;9.90;;;16.60;99.90;;;-141.84;80.02;19413.47;5072472;28;20640;-64
2022/09/14 00:24:22;;;;;;;10.30;9.23;;;16.70;99.90;;;-141.84;80.19;19397.22;5091429;28;20688;-64
2022/09/14 00:26:51;;;;;;;11.30;10.20;;;16.70;99.90;;;-141.84;80.26;19397.22;5092667;28;20749;-65
2022/09/14 00:29:19;;;;;;;11.32;10.23;;;16.80;99.90;;;-141.84;80.03;19405.34;5092390;28;20588;-64
2022/09/14 00:31:48;;;;;;;10.90;9.90;;;16.80;99.90;;;-141.84;79.96;19405.34;5092839;28;20251;-64
2022/09/14 00:34:19;;;;;;;10.23;9.32;;;16.80;99.90;;;-141.84;79.95;19403.31;5092200;28;20224;-67
2022/09/14 00:36:50;;;;;;;11.20;10.07;;;16.80;99.90;;;-141.84;79.95;19401.28;5092637;28;20185;-64
2022/09/14 00:39:22;;;;;;;10.63;9.63;;;16.80;99.90;;;-141.84;79.55;19419.59;5092868;28;20819;-66
2022/09/14 00:41:51;;;;;;;11.15;10.05;;;16.80;99.90;;;-141.84;79.51;19411.44;5092206;28;20231;-67
2022/09/14 00:45:02;;;;;;;10.60;9.50;;;16.90;99.90;;;-141.84;79.30;19423.66;5092299;28;20224;-65
2022/09/14 00:47:32;;;;;;;10.90;9.82;;;16.90;99.90;;;-141.84;78.71;19405.34;5092254;28;20228;-66
2022/09/14 00:50:05;;;;;;;11.23;10.13;;;16.90;99.90;;;-141.84;78.29;19435.84;5091981;28;20731;-63
2022/09/14 00:52:40;;;;;;;10.77;9.75;;;17.00;99.90;;;-141.84;78.08;19439.91;5092089;28;20230;-64
2022/09/14 00:55:13;;;;;;;10.30;9.32;;;17.00;99.90;;;-141.84;78.45;19441.94;5092166;28;20648;-66
2022/09/14 00:57:47;;;;;;;9.88;8.98;;;17.00;99.90;;;-141.84;78.83;19429.75;5092193;28;20223;-64
2022/09/14 01:00:22;;;;;;;8.93;8.05;;;17.00;99.90;;;-141.84;79.04;19401.28;5092640;28;20555;-65
2022/09/14 01:02:51;;;;;;;10.07;9.07;;;17.00;99.90;;;-141.84;79.08;19441.94;5091674;28;20794;-65
2022/09/14 01:05:45;;;;;;;11.13;10.02;;;16.90;99.90;;;-141.84;78.66;19443.97;5091689;28;20236;-64
2022/09/14 01:08:49;;;;;;;11.88;9.35;;;16.90;99.90;;;-141.84;78.50;19437.88;5091989;28;20230;-68
2022/09/14 01:11:39;;;;;;;10.68;9.73;;;17.00;99.90;;;-141.84;78.17;19435.84;5091665;28;20235;-65
2022/09/14 01:14:20;;;;;;;12.13;10.32;;;16.90;99.90;;;-141.84;77.06;19427.72;5091826;28;20645;-66
2022/09/14 01:16:59;;;;;;;10.02;9.02;;;17.00;99.90;;;-141.84;76.94;19437.88;5092030;28;20272;-66
2022/09/14 01:19:48;;;;;;;11.32;10.18;;;17.00;99.90;;;-141.84;74.94;19506.97;5091550;28;20234;-65
2022/09/14 01:22:25;;;;;;;11.43;10.32;;;17.00;99.90;;;-141.84;74.35;19529.31;5091764;28;20239;-66
2022/09/14 01:25:03;;;;;;;11.02;9.93;;;17.10;99.90;;;-141.84;74.51;19515.09;5091735;28;20207;-64
2022/09/14 01:27:40;;;;;;;11.32;10.23;;;17.10;99.90;;;-141.84;73.63;19567.94;5091806;28;20184;-64
2022/09/14 01:30:12;;;;;;;10.38;9.18;;;17.10;99.90;;;-141.84;72.52;19572.00;5091908;28;20679;-63
2022/09/14 01:32:52;;;;;;;9.07;8.18;;;17.20;99.90;;;-141.84;72.12;19604.50;5091074;28;20234;-67
2022/09/14 01:35:28;;;;;;;8.35;7.55;;;17.10;99.90;;;-141.84;72.41;19567.94;5091152;28;20227;-65
2022/09/14 01:38:03;;;;;;;9.10;8.20;;;17.10;99.90;;;-141.84;71.38;19628.91;5091244;28;20265;-65
2022/09/14 01:40:37;;;;;;;8.43;7.50;;;17.10;99.90;;;-141.84;70.87;19630.94;5091590;28;20230;-65
2022/09/14 01:43:12;;;;;;;7.68;6.93;;;17.10;99.90;;;-141.84;71.60;19600.44;5091124;28;20643;-65
2022/09/14 01:45:46;;;;;;;9.07;7.60;;;17.00;99.90;;;-141.84;70.90;19626.88;5091474;28;20257;-67
2022/09/14 01:48:22;;;;;;;8.48;6.85;;;17.00;99.90;;;-141.84;71.47;19624.84;5091786;28;20180;-66
2022/09/14 01:50:55;;;;;;;8.70;6.95;;;17.00;99.90;;;-141.84;71.59;19626.88;5090962;28;20223;-64
2022/09/14 01:53:33;;;;;;;7.72;7.03;;;16.90;99.90;;;-141.84;71.46;19626.88;5091025;28;20223;-65
2022/09/14 01:56:08;;;;;;;7.78;6.97;;;16.90;99.90;;;-141.84;71.31;19643.13;5091082;28;20223;-65
2022/09/14 01:58:45;;;;;;;7.88;6.97;;;16.90;99.90;;;-141.84;71.99;19590.28;5090920;28;20238;-66
2022/09/14 02:01:20;;;;;;;9.27;7.75;;;16.90;99.90;;;-141.84;72.23;19606.53;5090994;28;20230;-65
2022/09/14 02:03:55;;;;;;;9.30;7.18;;;16.80;99.90;;;-141.84;72.63;19586.22;5090416;28;20231;-67
2022/09/14 02:06:32;;;;;;;9.20;7.68;;;16.80;99.90;;;-141.84;73.35;19545.56;5091557;28;20271;-64
2022/09/14 02:09:03;;;;;;;9.43;7.20;;;16.70;99.90;;;-141.84;73.25;19563.88;5090753;28;20309;-64
2022/09/14 02:11:32;;;;;;;9.55;7.05;;;16.70;99.90;;;-141.84;73.45;19517.13;5090313;28;20232;-66
2022/09/14 02:14:02;;;;;;;8.35;7.45;;;16.70;99.90;;;-141.84;72.96;19543.53;5090521;28;20223;-66
2022/09/14 02:16:30;;;;;;;8.85;7.43;;;16.70;99.90;;;-141.84;73.25;19519.16;5090654;28;20224;-64
2022/09/14 02:19:00;;;;;;;7.53;6.78;;;16.70;99.90;;;-141.84;74.11;19511.03;5090647;28;20215;-66
2022/09/14 02:21:31;;;;;;;7.72;6.93;;;16.60;99.90;;;-141.84;74.38;19490.72;5091369;28;20200;-67
2022/09/14 02:24:00;;;;;;;7.65;6.85;;;16.50;99.90;;;-141.84;75.02;19490.72;5090270;28;20235;-65
2022/09/14 02:26:29;;;;;;;6.95;6.20;;;16.50;99.90;;;-141.84;75.16;19498.84;5090373;28;20227;-65
2022/09/14 02:28:58;;;;;;;8.23;7.07;;;16.40;99.90;;;-141.84;74.99;19484.59;5090402;28;20228;-64
2022/09/14 02:31:46;;;;;;;7.85;6.95;;;16.50;99.90;;;-141.84;74.29;19498.84;5090585;28;20215;-64
2022/09/14 02:34:28;;;;;;;6.53;5.82;;;16.50;99.90;;;-141.84;74.67;19482.56;5090514;28;20717;-66
2022/09/14 02:37:06;;;;;;;8.23;7.30;;;16.40;99.90;;;-141.84;75.02;19500.88;5090598;28;20224;-65
2022/09/14 02:39:50;;;;;;;7.97;6.70;;;16.40;99.90;;;-141.84;74.31;19496.81;5091008;28;20631;-64
2022/09/14 02:42:35;;;;;;;6.93;6.22;;;16.40;99.90;;;-141.84;74.84;19446.00;5090463;28;20235;-65
2022/09/14 02:45:20;;;;;;;6.63;6.03;;;16.40;99.90;;;-141.84;74.68;19472.41;5090269;28;20311;-65
2022/09/14 02:48:00;;;;;;;6.55;5.95;;;16.40;99.90;;;-141.84;74.87;19464.28;5095229;28;20223;-66
2022/09/14 02:50:39;;;;;;;6.88;5.72;;;16.40;99.90;;;-141.84;74.66;19460.22;5097242;28;20223;-64
2022/09/14 02:53:17;;;;;;;6.32;5.72;;;16.40;99.90;;;-141.84;74.84;19431.78;5097010;28;20242;-65
2022/09/14 02:55:53;;;;;;;6.18;5.68;;;16.30;99.90;;;-141.84;74.62;19450.06;5097182;28;20223;-64
2022/09/14 02:58:22;;;;;;;7.10;6.18;;;16.40;99.90;;;-141.84;74.63;19462.25;5096747;28;20725;-65
2022/09/14 03:00:51;;;;;;;7.13;6.25;;;16.30;99.90;;;-141.84;74.49;19448.03;5097169;28;20227;-65
2022/09/14 03:03:21;;;;;;;7.72;5.28;;;16.30;99.90;;;-141.84;73.94;19458.19;5097841;28;20582;-66
2022/09/14 03:05:49;;;;;;;5.93;5.20;;;16.30;99.90;;;-141.84;74.56;19425.69;5097819;28;20231;-65
2022/09/14 03:08:17;;;;;;;6.15;5.20;;;16.30;99.90;;;-141.84;74.70;19448.03;5096746;28;20246;-66
2022/09/14 03:10:46;;;;;;;7.45;5.63;;;16.30;99.90;;;-141.84;73.17;19517.13;5097056;28;20230;-64
2022/09/14 03:13:14;;;;;;;7.50;5.38;;;16.40;99.90;;;-141.84;73.73;19462.25;5096806;28;20302;-67
2022/09/14 03:15:42;;;;;;;6.25;5.05;;;16.30;99.90;;;-141.84;73.27;19482.56;5097075;28;20203;-65
2022/09/14 03:18:11;;;;;;;5.75;5.05;;;16.40;99.90;;;-141.84;74.10;19468.34;5097323;28;20520;-64
2022/09/14 03:20:44;;;;;;;5.57;4.90;;;16.30;99.90;;;-141.84;73.85;19464.28;5096775;28;20231;-66
2022/09/14 03:23:13;;;;;;;5.40;4.90;;;16.30;99.90;;;-141.84;72.41;19517.13;5096430;28;20228;-65
2022/09/14 03:25:44;;;;;;;7.40;5.50;;;16.40;99.90;;;-141.84;72.28;19523.22;5096634;28;20223;-65
2022/09/14 03:28:13;;;;;;;6.18;4.90;;;16.40;99.90;;;-141.84;71.92;19567.94;5096541;28;20212;-64
2022/09/14 03:30:41;;;;;;;6.07;5.47;;;16.40;99.90;;;-141.84;72.52;19531.34;5096817;28;20296;-65
2022/09/14 03:33:09;;;;;;;5.95;5.35;;;16.40;99.90;;;-141.84;72.74;19557.78;5097008;28;20230;-64
2022/09/14 03:35:38;;;;;;;6.03;4.70;;;16.40;99.90;;;-141.84;71.77;19574.03;5096571;28;20700;-65
2022/09/14 03:38:08;;;;;;;6.63;4.82;;;16.40;99.90;;;-141.84;72.67;19537.44;5096609;28;20238;-64
2022/09/14 03:40:36;;;;;;;6.22;4.78;;;16.40;99.90;;;-141.84;73.33;19486.66;5096766;28;20231;-64
2022/09/14 03:43:04;;;;;;;5.50;4.30;;;16.30;99.90;;;-141.84;73.57;19492.75;5096197;28;20223;-64
2022/09/14 03:45:32;;;;;;;6.25;4.70;;;16.30;99.90;;;-141.84;73.48;19484.59;5096931;28;20241;-64
2022/09/14 03:48:00;;;;;;;4.70;4.28;;;16.30;99.90;;;-141.84;73.36;19511.03;5096491;28;20718;-64
2022/09/14 03:50:28;;;;;;;5.82;4.80;;;16.30;99.90;;;-141.84;73.15;19533.38;5096529;28;20710;-64
2022/09/14 03:52:56;;;;;;;6.20;5.30;;;16.20;99.90;;;-141.84;73.26;19456.16;5096352;28;20220;-63
2022/09/14 03:55:25;;;;;;;6.28;4.60;;;16.20;99.90;;;-141.84;73.12;19474.44;5096397;28;20220;-64
2022/09/14 03:57:54;;;;;;;7.65;4.78;;;16.10;99.90;;;-141.84;73.52;19456.16;5094695;28;20554;-65
2022/09/14 04:00:22;;;;;;;7.32;4.55;;;16.10;99.90;;;-141.84;73.22;19480.53;5093481;28;20196;-65
2022/09/14 04:02:50;;;;;;;5.65;4.35;;;16.10;99.90;;;-141.84;72.81;19511.03;5093321;28;20224;-64
2022/09/14 04:05:19;;;;;;;6.40;5.05;;;16.10;99.90;;;-141.84;72.92;19490.72;5093052;28;20282;-64
2022/09/14 04:07:49;;;;;;;5.90;4.65;;;16.10;99.90;;;-141.84;73.39;19476.47;5093114;28;20277;-64
2022/09/14 04:10:17;;;;;;;6.13;4.60;;;16.10;99.90;;;-141.84;73.50;19500.88;5093080;28;20224;-66
2022/09/14 04:12:47;;;;;;;5.45;4.53;;;16.00;99.90;;;-141.84;73.24;19452.09;5092975;28;20258;-65
2022/09/14 04:15:15;;;;;;;5.88;4.32;;;16.00;99.90;;;-141.84;73.13;19462.25;5093532;28;20208;-64
2022/09/14 04:17:43;;;;;;;5.90;3.83;;;16.00;99.90;;;-141.84;73.36;19472.41;5092679;28;20580;-64
2022/09/14 04:20:11;;;;;;;6.07;3.85;;;16.00;99.90;;;-141.84;73.36;19441.94;5092656;28;20223;-66
2022/09/14 04:22:39;;;;;;;5.78;3.88;;;16.00;99.90;;;-141.84;73.03;19454.13;5092623;28;20224;-65
2022/09/14 04:25:08;;;;;;;5.97;3.80;;;16.00;99.90;;;-141.84;73.01;19443.97;5092559;28;20741;-64
2022/09/14 04:27:36;;;;;;;5.57;3.88;;;15.90;99.90;;;-141.84;73.15;19460.22;5092886;28;20590;-65
2022/09/14 04:30:07;;;;;;;5.20;4.00;;;15.90;99.90;;;-141.84;72.94;19462.25;5093013;28;20216;-66
2022/09/14 04:32:35;;;;;;;5.30;4.05;;;16.00;99.90;;;-141.84;72.34;19490.72;5092504;28;20228;-66
2022/09/14 04:35:03;;;;;;;6.90;3.70;;;15.90;99.90;;;-141.84;72.12;19490.72;5092725;28;20226;-65
2022/09/14 04:37:32;;;;;;;7.78;3.50;;;16.00;99.90;;;-141.84;71.78;19498.84;5092507;28;20216;-65
2022/09/14 04:40:00;;;;;;;5.75;4.50;;;16.00;99.90;;;-141.84;71.69;19494.78;5092407;28;20231;-66
2022/09/14 04:42:29;;;;;;;4.10;3.60;;;16.00;99.90;;;-141.84;71.70;19460.22;5093046;28;20207;-64
2022/09/14 04:44:57;;;;;;;5.75;4.07;;;16.00;99.90;;;-141.84;72.10;19496.81;5092076;28;20228;-64
2022/09/14 04:47:29;;;;;;;4.32;3.65;;;16.00;99.90;;;-141.84;72.32;19498.84;5092293;28;20228;-64
2022/09/14 04:49:57;;;;;;;5.32;3.70;;;16.00;99.90;;;-141.84;71.92;19492.75;5092206;28;20644;-65
2022/09/14 04:52:25;;;;;;;7.35;3.85;;;16.00;99.90;;;-141.84;72.18;19504.94;5092042;28;20224;-65
2022/09/14 04:54:53;;;;;;;7.65;3.70;;;16.00;99.90;;;-141.84;71.86;19494.78;5091882;28;20744;-63
2022/09/14 04:57:21;;;;;;;4.88;3.70;;;16.00;99.90;;;-141.84;71.92;19486.66;5092723;28;20211;-66
2022/09/14 04:59:49;;;;;;;4.60;3.75;;;16.00;99.90;;;-141.84;72.21;19506.97;5092003;28;20228;-64
2022/09/14 05:02:17;;;;;;;5.90;4.07;;;16.00;99.90;;;-141.84;72.42;19504.94;5092131;28;20605;-65
2022/09/14 05:04:47;;;;;;;7.13;4.10;;;16.00;99.90;;;-141.84;72.14;19472.41;5091502;28;20343;-64
2022/09/14 05:07:15;;;;;;;4.43;3.30;;;16.00;99.90;;;-141.84;71.71;19523.22;5091784;28;20771;-66
2022/09/14 05:09:43;;;;;;;5.88;3.50;;;16.00;99.90;;;-141.84;71.48;19551.69;5091589;28;20208;-66
2022/09/14 05:12:11;;;;;;;5.38;3.58;;;16.10;99.90;;;-141.84;71.58;19539.47;5092430;28;20203;-64
2022/09/14 05:14:39;;;;;;;6.60;3.92;;;16.10;99.90;;;-141.84;71.53;19525.25;5091612;28;20234;-63
2022/09/14 05:17:07;;;;;;;4.22;3.83;;;16.10;99.90;;;-141.84;71.66;19486.66;5091504;28;20235;-64
2022/09/14 05:19:35;;;;;;;6.22;3.80;;;16.10;99.90;;;-141.84;71.57;19502.91;5091293;28;20232;-64
2022/09/14 05:22:05;;;;;;;8.77;3.90;;;16.10;99.90;;;-141.84;71.15;19561.84;5091494;28;20223;-65
2022/09/14 05:24:33;;;;;;;4.78;3.72;;;16.10;99.90;;;-141.84;71.25;19610.59;5092595;28;20739;-64
2022/09/14 05:27:01;;;;;;;6.30;3.63;;;16.20;99.90;;;-141.84;71.01;19541.50;5092140;28;20224;-64
2022/09/14 05:29:30;;;;;;;5.60;3.42;;;16.20;99.90;;;-141.84;70.11;19572.00;5092110;28;20225;-64
2022/09/14 05:31:58;;;;;;;4.65;3.40;;;16.20;99.90;;;-141.84;69.83;19598.41;5092466;28;20232;-64
2022/09/14 05:34:26;;;;;;;8.77;3.65;;;16.20;99.90;;;-141.84;70.26;19604.50;5092128;28;20238;-64
2022/09/14 05:36:54;;;;;;;6.53;4.15;;;16.20;99.90;;;-141.84;70.17;19590.28;5092243;28;20225;-63
2022/09/14 05:39:24;;;;;;;7.07;3.92;;;16.20;99.90;;;-141.84;69.99;19598.41;5092925;28;20287;-65
2022/09/14 05:41:52;;;;;;;6.55;3.88;;;16.20;99.90;;;-141.84;69.59;19596.38;5092336;28;20224;-64
2022/09/14 05:44:21;;;;;;;5.13;3.85;;;16.20;99.90;;;-141.84;69.67;19639.06;5091981;28;20228;-64
2022/09/14 05:46:49;;;;;;;4.97;3.42;;;16.20;99.90;;;-141.84;69.59;19596.38;5091943;28;20232;-64
2022/09/14 05:49:17;;;;;;;5.40;3.75;;;16.20;99.90;;;-141.84;69.46;19594.34;5091986;28;20307;-64
2022/09/14 05:51:45;;;;;;;6.53;3.92;;;16.20;99.90;;;-141.84;69.47;19622.81;5092171;28;20200;-63
2022/09/14 05:54:13;;;;;;;8.52;3.78;;;16.20;99.90;;;-141.84;68.97;19649.22;5092178;28;20648;-64
2022/09/14 05:56:42;;;;;;;6.53;3.70;;;16.20;99.90;;;-141.84;69.23;19653.28;5091655;28;20231;-65
2022/09/14 05:59:11;;;;;;;6.03;3.47;;;16.30;99.90;;;-141.84;69.34;19632.97;5091503;28;20646;-64
2022/09/14 06:01:39;;;;;;;5.55;3.40;;;16.30;99.90;;;-141.84;68.66;19663.44;5091599;28;20277;-64
2022/09/14 06:04:08;;;;;;;6.53;3.85;;;16.30;99.90;;;-141.84;68.24;19700.03;5091656;28;20219;-65
2022/09/14 06:06:36;;;;;;;4.82;3.25;;;16.40;99.90;;;-141.84;68.31;19673.59;5091943;28;20227;-64
2022/09/14 06:09:05;;;;;;;7.93;3.80;;;16.40;99.90;;;-141.84;67.03;19734.56;5092209;28;20245;-65
2022/09/14 06:11:36;;;;;;;5.45;3.55;;;16.60;99.90;;;-141.84;67.24;19763.03;5091633;28;20229;-65
2022/09/14 06:14:06;;;;;;;5.72;3.38;;;16.60;99.90;;;-141.84;67.77;19730.50;5091698;28;20601;-64
2022/09/14 06:16:35;;;;;;;5.97;3.17;;;16.60;99.90;;;-141.84;67.89;19746.78;5091537;28;20220;-64
2022/09/14 06:19:03;;;;;;;6.18;3.20;;;16.70;99.90;;;-141.84;67.45;19748.81;5091503;28;20594;-64
2022/09/14 06:21:34;;;;;;;6.80;3.28;;;16.60;99.90;;;-141.84;67.17;19767.09;5091451;28;20229;-63
2022/09/14 06:24:03;;;;;;;7.13;3.60;;;16.60;99.90;;;-141.84;67.10;19726.44;5091172;28;20223;-64
2022/09/14 06:26:31;;;;;;;5.40;2.97;;;16.50;99.90;;;-141.84;67.60;19769.13;5091106;28;20579;-65
2022/09/14 06:28:59;;;;;;;7.35;3.25;;;16.50;99.90;;;-141.84;66.70;19795.53;5091364;28;20227;-66
2022/09/14 06:31:29;;;;;;;4.88;3.42;;;16.60;99.90;;;-141.84;66.19;19807.75;5091420;28;20224;-65
2022/09/14 06:33:57;;;;;;;7.97;3.13;;;16.60;99.90;;;-141.84;66.41;19793.50;5091353;28;20580;-65
2022/09/14 06:36:28;;;;;;;6.20;2.75;;;16.70;99.90;;;-141.84;65.23;19911.41;5092002;28;20200;-65
2022/09/14 06:38:56;;;;;;;4.38;2.38;;;16.80;99.90;;;-141.84;64.95;19909.34;5091150;28;20702;-65
2022/09/14 06:41:29;;;;;;;6.15;2.90;;;16.80;99.90;;;-141.84;64.83;19878.88;5091332;28;20281;-64
2022/09/14 06:44:00;;;;;;;4.60;2.80;;;16.80;99.90;;;-141.84;63.96;19974.41;5090721;28;20250;-64
2022/09/14 06:46:33;;;;;;;3.97;2.70;;;16.90;99.90;;;-141.84;64.59;19952.03;5090738;28;20227;-64
2022/09/14 06:49:04;;;;;;;4.35;2.47;;;17.00;99.90;;;-141.84;64.85;19925.63;5090680;28;20691;-65
2022/09/14 06:51:35;;;;;;;5.45;2.42;;;17.00;99.90;;;-141.84;63.32;20049.59;5091720;28;20193;-63
2022/09/14 06:54:05;;;;;;;7.53;2.70;;;17.00;99.90;;;-141.84;63.68;19982.53;5091056;28;20558;-63
2022/09/14 06:56:36;;;;;;;5.55;2.45;;;16.90;99.90;;;-141.84;62.45;20082.13;5090950;28;20223;-62
2022/09/14 06:59:06;;;;;;;8.23;2.60;;;17.00;99.90;;;-141.84;62.65;20065.84;5091127;28;20224;-64
2022/09/14 07:01:36;;;;;;;2.03;1.73;;;17.00;99.90;;;-141.84;64.01;19986.59;5090875;28;20751;-65
2022/09/14 07:04:06;;;;;;;6.47;2.50;;;16.90;99.90;;;-141.84;64.58;19970.34;5090863;28;20227;-64
2022/09/14 07:06:41;;;;;;;7.03;2.13;;;16.80;99.90;;;-141.84;62.20;20080.09;5091424;28;20265;-62
2022/09/14 07:09:10;;;;;;;4.60;2.35;;;16.90;99.90;;;-141.84;63.54;19984.56;5091374;28;20204;-64
2022/09/14 07:11:38;;;;;;;4.50;2.45;;;16.90;99.90;;;-141.84;64.12;20004.88;5090695;28;20239;-64
2022/09/14 07:14:07;;;;;;;4.10;2.60;;;16.80;99.90;;;-141.84;64.58;19980.50;5090909;28;20677;-65
2022/09/14 07:16:39;;;;;;;5.25;3.25;;;16.80;99.90;;;-141.84;65.14;19960.16;5090168;28;20230;-64
2022/09/14 07:19:12;;;;;;;7.38;3.50;;;16.90;99.90;;;-141.84;66.09;19891.06;5089483;28;20231;-64
2022/09/14 07:21:40;;;;;;;6.68;3.85;;;16.90;99.90;;;-141.84;66.09;19919.53;5090191;28;20184;-63
2022/09/14 07:24:10;;;;;;;5.63;3.95;;;17.00;99.90;;;-141.84;65.37;19988.63;5090927;28;20246;-64
2022/09/14 07:26:41;;;;;;;6.68;4.00;;;17.10;99.90;;;-141.84;66.69;19903.25;5088537;28;20232;-64
2022/09/14 07:29:14;;;;;;;5.47;3.70;;;17.00;99.90;;;-141.84;66.97;19893.09;5089379;28;20220;-66
2022/09/14 07:31:46;;;;;;;4.82;3.38;;;17.10;99.90;;;-141.84;66.69;19911.41;5089620;28;20231;-64
2022/09/14 07:34:15;;;;;;;5.57;3.80;;;17.10;99.90;;;-141.84;65.68;19911.41;5092453;28;20224;-65
2022/09/14 07:36:44;;;;;;;7.53;3.70;;;17.20;99.90;;;-141.84;64.76;20017.09;5093750;28;20211;-64
2022/09/14 07:39:15;;;;;;;4.95;3.33;;;17.20;99.90;;;-141.84;62.98;20122.78;5094119;28;20694;-65
2022/09/14 07:41:44;;;;;;;5.68;2.88;;;17.40;99.90;;;-141.84;63.58;20086.19;5093508;28;20224;-66
2022/09/14 07:44:17;;;;;;;6.15;3.30;;;17.30;99.90;;;-141.84;64.34;20049.59;5093401;28;20228;-63
2022/09/14 07:46:47;;;;;;;6.65;2.60;;;17.30;99.90;;;-141.84;63.96;20049.59;5093292;28;20242;-64
2022/09/14 07:49:17;;;;;;;4.65;3.05;;;17.30;99.90;;;-141.84;62.83;20151.22;5093327;28;20231;-64
2022/09/14 07:51:45;;;;;;;4.32;2.75;;;17.40;99.90;;;-141.84;63.43;20086.19;5093221;28;20672;-64
2022/09/14 07:54:16;;;;;;;9.05;3.00;;;17.40;99.90;;;-141.84;63.07;20177.66;5094053;28;20210;-64
2022/09/14 07:56:45;;;;;;;5.07;2.60;;;17.30;99.90;;;-141.84;61.18;20246.75;5093402;28;20251;-64
2022/09/14 07:59:15;;;;;;;11.75;2.90;;;17.50;99.90;;;-141.84;62.04;20200.00;5093055;28;20227;-63
2022/09/14 08:02:06;;;;;;;6.80;2.60;;;17.40;99.90;;;-141.84;62.13;20210.16;5093180;28;20219;-64
2022/09/14 08:04:35;;;;;;;5.07;2.08;;;17.40;99.90;;;-141.84;61.81;20218.31;5093155;28;20239;-65
2022/09/14 08:07:03;;;;;;;6.50;2.80;;;17.40;99.90;;;-141.84;62.01;20228.47;5092963;28;20236;-63
2022/09/14 08:09:32;;;;;;;5.35;2.78;;;17.40;99.90;;;-141.84;62.60;20204.06;5093728;28;20211;-65
2022/09/14 08:12:00;;;;;;;5.72;2.97;;;17.40;99.90;;;-141.84;62.74;20183.75;5092786;28;20236;-64
2022/09/14 08:14:28;;;;;;;6.15;3.30;;;17.30;99.90;;;-141.84;63.57;20132.94;5092593;28;20644;-64
2022/09/14 08:16:56;;;;;;;5.72;3.20;;;17.30;99.90;;;-141.84;64.14;20130.91;5092812;28;20227;-65
2022/09/14 08:19:26;;;;;;;7.13;3.90;;;17.30;99.90;;;-141.84;64.69;20110.56;5092969;28;20227;-64
2022/09/14 08:21:54;;;;;;;7.03;3.80;;;17.30;99.90;;;-141.84;65.60;19994.72;5092669;28;20211;-65
2022/09/14 08:24:22;;;;;;;7.40;4.03;;;17.20;99.90;;;-141.84;66.36;19990.66;5092956;28;20542;-64
2022/09/14 08:26:51;;;;;;;6.03;3.42;;;17.20;99.90;;;-141.84;66.07;19996.75;5092575;28;20228;-65
2022/09/14 08:29:20;;;;;;;6.55;3.63;;;17.30;99.90;;;-141.84;65.88;20013.00;5092492;28;20227;-65
2022/09/14 08:31:50;;;;;;;6.82;3.75;;;17.30;99.90;;;-141.84;65.37;20039.44;5092662;28;20220;-65
2022/09/14 08:34:19;;;;;;;4.43;3.55;;;17.30;99.90;;;-141.84;65.63;20065.84;5092502;28;20251;-64
2022/09/14 08:36:49;;;;;;;4.47;3.47;;;17.40;99.90;;;-141.84;64.29;20086.19;5092700;28;20212;-64
2022/09/14 08:39:18;;;;;;;4.03;3.00;;;17.40;99.90;;;-141.84;64.15;20092.28;5093229;28;20207;-65
2022/09/14 08:41:54;;;;;;;4.70;3.13;;;17.40;99.90;;;-141.84;64.23;20112.59;5092518;28;20239;-65
2022/09/14 08:44:28;;;;;;;6.78;3.30;;;17.30;99.90;;;-141.84;64.91;20063.81;5091550;28;20470;-65
2022/09/14 08:47:01;;;;;;;4.88;3.33;;;17.30;99.90;;;-141.84;65.46;20049.59;5092452;28;20226;-65
2022/09/14 08:49:51;;;;;;;4.20;2.95;;;17.30;99.90;;;-141.84;65.23;20031.31;5092172;28;20356;-66
2022/09/14 08:52:28;;;;;;;9.07;2.92;;;17.30;99.90;;;-141.84;64.65;20069.94;5092257;28;20224;-64
2022/09/14 08:55:22;;;;;;;3.50;2.63;;;17.30;99.90;;;-141.84;63.75;20086.19;5092277;28;20192;-65
2022/09/14 08:57:59;;;;;;;5.30;2.60;;;17.30;99.90;;;-141.84;62.85;20173.59;5091743;28;20196;-64
2022/09/14 09:00:39;;;;;;;5.03;2.90;;;17.30;99.90;;;-141.84;62.77;20175.63;5093157;28;20184;-63
2022/09/14 09:03:48;;;;;;;4.07;2.65;;;17.40;99.90;;;-141.84;61.63;20297.56;5092389;28;20261;-64
2022/09/14 09:06:26;;;;;;;5.03;2.63;;;17.50;99.90;;;-141.84;60.77;20338.22;5092359;28;20228;-64
2022/09/14 09:09:07;;;;;;;7.13;2.45;;;17.50;99.90;;;-141.84;60.54;20372.78;5091739;28;20227;-64
2022/09/14 09:11:40;;;;;;;4.55;2.50;;;17.70;99.90;;;-141.84;59.70;20433.75;5091903;28;20231;-64
2022/09/14 09:14:19;;;;;;;5.35;2.47;;;17.80;99.90;;;-141.84;60.05;20447.97;5090579;28;20235;-65
2022/09/14 09:16:52;;;;;;;5.47;2.80;;;18.00;99.90;;;-141.84;58.49;20521.16;5091942;28;20223;-65
2022/09/14 09:19:28;;;;;;;2.90;2.28;;;18.00;99.90;;;-141.84;59.22;20482.53;5091553;28;20228;-64
2022/09/14 09:22:00;;;;;;;4.35;2.50;;;18.00;99.90;;;-141.84;58.25;20543.53;5092376;28;20185;-64
2022/09/14 09:24:37;;;;;;;5.72;2.63;;;18.10;99.90;;;-141.84;58.04;20624.84;5071776;28;20228;-64
2022/09/14 09:27:11;;;;;;;4.53;2.28;;;18.20;99.90;;;-141.84;56.89;20661.44;5071845;28;20220;-64
2022/09/14 09:29:39;;;;;;;6.38;2.50;;;18.30;99.90;;;-141.84;56.99;20679.72;5070982;28;20285;-65
2022/09/14 09:32:14;;;;;;;4.65;2.30;;;18.40;99.90;;;-141.84;57.73;20624.84;5071372;28;20224;-63
2022/09/14 09:34:42;;;;;;;3.90;1.88;;;18.30;99.90;;;-141.84;58.28;20576.03;5070960;28;20220;-65
2022/09/14 09:37:14;;;;;;;6.72;1.85;;;18.10;99.90;;;-141.84;55.68;20624.84;5071055;28;20231;-65
2022/09/14 09:39:44;;;;;;;3.25;1.38;;;18.10;99.90;;;-141.84;55.92;20594.34;5071283;28;20238;-64
2022/09/14 09:42:21;;;;;;;4.63;1.52;;;17.90;99.90;;;-141.84;55.92;20649.22;5071959;28;20259;-65
2022/09/14 09:45:01;;;;;;;4.53;1.60;;;17.90;99.90;;;-141.84;56.42;20618.72;5070895;28;20228;-65
2022/09/14 09:47:35;;;;;;;2.80;1.50;;;17.80;99.90;;;-141.84;57.09;20590.28;5071107;28;20232;-65
2022/09/14 09:50:17;;;;;;;3.83;1.67;;;17.70;99.90;;;-141.84;57.29;20567.91;5070731;28;20229;-64
2022/09/14 09:52:50;;;;;;;4.78;1.90;;;17.60;99.90;;;-141.84;57.57;20529.28;5077132;28;20223;-65
2022/09/14 09:55:22;;;;;;;4.53;1.65;;;17.50;99.90;;;-141.84;57.79;20557.75;5091201;28;20226;-64
2022/09/14 09:57:50;;;;;;;2.10;1.40;;;17.50;99.90;;;-141.84;57.76;20545.56;5090328;28;20195;-65
2022/09/14 10:00:23;;;;;;;4.78;1.45;;;17.60;99.90;;;-141.84;57.03;20604.50;5091713;28;20215;-65
2022/09/14 10:02:52;;;;;;;6.13;1.70;;;17.70;99.90;;;-141.84;56.37;20689.88;5090704;28;20243;-64
2022/09/14 10:05:27;;;;;;;4.53;1.83;;;17.80;99.90;;;-141.84;56.64;20679.72;5090643;28;20224;-63
2022/09/14 10:07:59;;;;;;;3.78;1.73;;;18.00;99.90;;;-141.84;56.37;20669.56;5090661;28;20231;-65
2022/09/14 10:10:43;;;;;;;1.90;1.20;;;18.00;99.90;;;-141.84;57.12;20671.59;5090878;28;20254;-65
2022/09/14 10:13:25;;;;;;;2.15;1.45;;;18.00;99.90;;;-141.84;56.82;20691.91;5090760;28;20284;-65
2022/09/14 10:15:54;;;;;;;2.47;1.58;;;18.10;99.90;;;-141.84;55.35;20767.13;5090800;28;20184;-65
2022/09/14 10:18:24;;;;;;;4.97;1.67;;;18.30;99.90;;;-141.84;54.64;20761.03;5091098;28;20246;-65
2022/09/14 10:21:09;;;;;;;5.78;1.58;;;18.40;99.90;;;-141.84;55.42;20708.19;5090372;28;20239;-65
2022/09/14 10:23:39;;;;;;;4.25;1.33;;;18.20;99.90;;;-141.84;55.46;20734.59;5090195;28;20219;-64
2022/09/14 10:26:26;;;;;;;5.18;1.50;;;18.20;99.90;;;-141.84;55.40;20732.56;5090525;28;20224;-65